sensor_id;sensor_type;location;lat;lon;timestamp;pressure;altitude;pressure_sealevel;temperature;humidity
57038;BME280;59942;49.304;8.256;2022-11-20T00:01:54;99831.13;;;2.02;93.55
57038;BME280;59942;49.304;8.256;2022-11-20T00:04:23;99841.16;;;2.16;92.98
57038;BME280;59942;49.304;8.256;2022-11-20T00:06:55;99877.69;;;2.24;93.10
57038;BME280;59942;49.304;8.256;2022-11-20T00:09:23;99912.19;;;2.53;93.76
57038;BME280;59942;49.304;8.256;2022-11-20T00:11:52;99857.41;;;1.55;94.74
57038;BME280;59942;49.304;8.256;2022-11-20T00:14:21;99841.81;;;1.72;95.62
57038;BME280;59942;49.304;8.256;2022-11-20T00:17:05;99978.09;;;2.88;94.55
57038;BME280;59942;49.304;8.256;2022-11-20T00:19:32;99914.91;;;2.42;93.85
57038;BME280;59942;49.304;8.256;2022-11-20T00:22:07;99940.03;;;2.17;94.92
57038;BME280;59942;49.304;8.256;2022-11-20T00:24:42;99897.38;;;2.17;94.34
57038;BME280;59942;49.304;8.256;2022-11-20T00:27:10;99864.88;;;2.25;94.06
57038;BME280;59942;49.304;8.256;2022-11-20T00:29:40;99946.00;;;2.70;94.12
57038;BME280;59942;49.304;8.256;2022-11-20T00:32:16;99841.19;;;2.13;93.11
57038;BME280;59942;49.304;8.256;2022-11-20T00:34:56;99872.94;;;2.51;92.69
57038;BME280;59942;49.304;8.256;2022-11-20T00:37:34;99840.22;;;2.20;92.97
57038;BME280;59942;49.304;8.256;2022-11-20T00:40:04;99868.88;;;2.40;92.87
57038;BME280;59942;49.304;8.256;2022-11-20T00:42:33;99873.72;;;2.56;92.47
57038;BME280;59942;49.304;8.256;2022-11-20T00:45:00;99829.72;;;2.35;91.69
57038;BME280;59942;49.304;8.256;2022-11-20T00:47:34;99956.16;;;3.22;92.29
57038;BME280;59942;49.304;8.256;2022-11-20T00:50:10;99818.91;;;1.66;93.39
57038;BME280;59942;49.304;8.256;2022-11-20T00:52:40;99917.66;;;2.28;94.28
57038;BME280;59942;49.304;8.256;2022-11-20T00:55:19;99888.75;;;2.24;94.45
57038;BME280;59942;49.304;8.256;2022-11-20T00:57:48;99918.50;;;2.30;95.22
57038;BME280;59942;49.304;8.256;2022-11-20T01:00:18;99901.88;;;2.03;96.30
57038;BME280;59942;49.304;8.256;2022-11-20T01:02:55;99957.00;;;2.21;97.32
57038;BME280;59942;49.304;8.256;2022-11-20T01:05:22;99833.53;;;1.56;96.87
57038;BME280;59942;49.304;8.256;2022-11-20T01:07:55;99826.47;;;1.74;96.14
57038;BME280;59942;49.304;8.256;2022-11-20T01:10:31;99883.75;;;2.15;96.15
57038;BME280;59942;49.304;8.256;2022-11-20T01:13:02;100004.16;;;2.62;96.61
57038;BME280;59942;49.304;8.256;2022-11-20T01:15:51;99840.09;;;1.73;96.27
57038;BME280;59942;49.304;8.256;2022-11-20T01:18:22;99903.34;;;2.18;96.00
57038;BME280;59942;49.304;8.256;2022-11-20T01:20:53;99873.81;;;1.98;96.34
57038;BME280;59942;49.304;8.256;2022-11-20T01:23:36;99978.00;;;2.43;97.28
57038;BME280;59942;49.304;8.256;2022-11-20T01:26:09;99847.94;;;1.62;97.27
57038;BME280;59942;49.304;8.256;2022-11-20T01:28:42;99836.28;;;1.43;98.10
57038;BME280;59942;49.304;8.256;2022-11-20T01:31:19;99970.94;;;2.59;97.26
57038;BME280;59942;49.304;8.256;2022-11-20T01:33:52;99832.91;;;1.41;97.04
57038;BME280;59942;49.304;8.256;2022-11-20T01:36:21;99930.06;;;1.98;98.58
57038;BME280;59942;49.304;8.256;2022-11-20T01:38:55;99842.00;;;1.60;97.53
57038;BME280;59942;49.304;8.256;2022-11-20T01:41:26;99981.88;;;2.67;96.47
57038;BME280;59942;49.304;8.256;2022-11-20T01:47:31;99874.44;;;2.13;97.18
57038;BME280;59942;49.304;8.256;2022-11-20T01:50:24;99904.03;;;2.28;96.27
57038;BME280;59942;49.304;8.256;2022-11-20T01:53:10;99885.13;;;2.38;95.54
57038;BME280;59942;49.304;8.256;2022-11-20T01:55:50;99899.38;;;2.53;95.09
57038;BME280;59942;49.304;8.256;2022-11-20T01:58:25;99892.34;;;2.64;94.69
57038;BME280;59942;49.304;8.256;2022-11-20T02:00:57;99845.13;;;1.78;96.35
57038;BME280;59942;49.304;8.256;2022-11-20T02:03:30;99876.81;;;2.23;95.18
57038;BME280;59942;49.304;8.256;2022-11-20T02:06:07;99860.66;;;2.21;94.55
57038;BME280;59942;49.304;8.256;2022-11-20T02:08:45;99812.34;;;1.50;96.27
57038;BME280;59942;49.304;8.256;2022-11-20T02:11:15;99884.69;;;2.13;95.90
57038;BME280;59942;49.304;8.256;2022-11-20T02:13:46;99851.13;;;1.77;96.25
57038;BME280;59942;49.304;8.256;2022-11-20T02:16:30;99944.69;;;2.46;96.71
57038;BME280;59942;49.304;8.256;2022-11-20T02:19:15;99896.53;;;2.18;96.47
57038;BME280;59942;49.304;8.256;2022-11-20T02:22:12;99860.19;;;1.96;97.63
57038;BME280;59942;49.304;8.256;2022-11-20T02:24:42;99800.03;;;1.77;96.91
57038;BME280;59942;49.304;8.256;2022-11-20T02:27:18;99911.72;;;2.28;97.31
57038;BME280;59942;49.304;8.256;2022-11-20T02:29:53;99896.69;;;2.07;98.06
57038;BME280;59942;49.304;8.256;2022-11-20T02:32:38;99930.03;;;2.56;96.81
57038;BME280;59942;49.304;8.256;2022-11-20T02:35:38;99863.44;;;2.07;96.60
57038;BME280;59942;49.304;8.256;2022-11-20T02:38:07;99901.19;;;2.46;96.60
57038;BME280;59942;49.304;8.256;2022-11-20T02:40:37;99867.34;;;2.30;95.53
57038;BME280;59942;49.304;8.256;2022-11-20T02:43:06;99941.28;;;2.95;94.60
57038;BME280;59942;49.304;8.256;2022-11-20T02:45:40;99905.28;;;2.56;94.97
57038;BME280;59942;49.304;8.256;2022-11-20T02:48:09;99860.94;;;2.04;95.86
57038;BME280;59942;49.304;8.256;2022-11-20T02:50:45;99798.38;;;1.72;95.06
57038;BME280;59942;49.304;8.256;2022-11-20T02:53:14;99823.16;;;1.67;96.84
57038;BME280;59942;49.304;8.256;2022-11-20T02:55:44;99933.19;;;2.70;95.88
57038;BME280;59942;49.304;8.256;2022-11-20T02:58:14;99829.69;;;1.85;96.34
57038;BME280;59942;49.304;8.256;2022-11-20T03:00:44;99819.25;;;1.98;96.17
57038;BME280;59942;49.304;8.256;2022-11-20T03:03:17;99815.59;;;2.14;95.32
57038;BME280;59942;49.304;8.256;2022-11-20T03:05:50;99945.31;;;3.07;95.18
57038;BME280;59942;49.304;8.256;2022-11-20T03:08:29;99800.00;;;1.78;96.11
57038;BME280;59942;49.304;8.256;2022-11-20T03:10:57;99879.91;;;2.42;95.53
57038;BME280;59942;49.304;8.256;2022-11-20T03:13:33;99942.28;;;2.87;95.38
57038;BME280;59942;49.304;8.256;2022-11-20T03:16:20;99852.63;;;2.43;94.55
57038;BME280;59942;49.304;8.256;2022-11-20T03:18:47;99799.44;;;2.11;94.29
57038;BME280;59942;49.304;8.256;2022-11-20T03:21:20;99851.66;;;2.50;94.00
57038;BME280;59942;49.304;8.256;2022-11-20T03:23:51;99822.34;;;2.18;95.54
57038;BME280;59942;49.304;8.256;2022-11-20T03:26:30;99859.41;;;2.44;94.26
57038;BME280;59942;49.304;8.256;2022-11-20T03:28:59;99883.88;;;2.60;94.70
57038;BME280;59942;49.304;8.256;2022-11-20T03:31:40;99913.50;;;2.74;94.84
57038;BME280;59942;49.304;8.256;2022-11-20T03:34:11;99930.31;;;2.87;95.86
57038;BME280;59942;49.304;8.256;2022-11-20T03:36:46;99815.47;;;2.22;94.82
57038;BME280;59942;49.304;8.256;2022-11-20T03:39:16;99841.28;;;2.06;97.38
57038;BME280;59942;49.304;8.256;2022-11-20T03:41:53;99928.28;;;2.58;97.27
57038;BME280;59942;49.304;8.256;2022-11-20T03:44:21;99886.50;;;2.57;96.37
57038;BME280;59942;49.304;8.256;2022-11-20T03:46:49;99836.41;;;1.93;97.81
57038;BME280;59942;49.304;8.256;2022-11-20T03:49:17;99843.69;;;2.17;97.57
57038;BME280;59942;49.304;8.256;2022-11-20T03:51:44;99878.00;;;2.54;96.03
57038;BME280;59942;49.304;8.256;2022-11-20T03:54:25;99845.63;;;2.51;94.84
57038;BME280;59942;49.304;8.256;2022-11-20T03:56:52;99818.66;;;2.35;94.45
57038;BME280;59942;49.304;8.256;2022-11-20T03:59:24;99870.88;;;2.71;94.47
57038;BME280;59942;49.304;8.256;2022-11-20T04:01:53;99866.66;;;2.70;95.15
57038;BME280;59942;49.304;8.256;2022-11-20T04:04:20;99766.13;;;2.17;94.09
57038;BME280;59942;49.304;8.256;2022-11-20T04:06:48;99777.94;;;2.21;94.86
57038;BME280;59942;49.304;8.256;2022-11-20T04:09:19;99818.50;;;2.42;94.68
57038;BME280;59942;49.304;8.256;2022-11-20T04:11:49;99908.75;;;3.01;94.57
57038;BME280;59942;49.304;8.256;2022-11-20T04:14:19;99864.66;;;2.85;94.34
57038;BME280;59942;49.304;8.256;2022-11-20T04:16:49;99826.34;;;2.33;95.90
57038;BME280;59942;49.304;8.256;2022-11-20T04:19:16;99839.47;;;2.63;95.07
57038;BME280;59942;49.304;8.256;2022-11-20T04:21:44;99756.53;;;2.26;94.44
57038;BME280;59942;49.304;8.256;2022-11-20T04:24:20;99786.09;;;2.43;94.63
57038;BME280;59942;49.304;8.256;2022-11-20T04:26:51;99816.78;;;2.45;95.25
57038;BME280;59942;49.304;8.256;2022-11-20T04:29:20;99793.22;;;2.27;95.32
57038;BME280;59942;49.304;8.256;2022-11-20T04:31:48;99837.09;;;2.52;94.40
57038;BME280;59942;49.304;8.256;2022-11-20T04:34:15;99834.53;;;2.52;93.62
57038;BME280;59942;49.304;8.256;2022-11-20T04:36:54;99762.28;;;1.91;96.29
57038;BME280;59942;49.304;8.256;2022-11-20T04:39:41;99860.94;;;2.56;95.80
57038;BME280;59942;49.304;8.256;2022-11-20T04:42:15;99858.00;;;2.74;95.19
57038;BME280;59942;49.304;8.256;2022-11-20T04:45:02;99888.13;;;2.62;97.32
57038;BME280;59942;49.304;8.256;2022-11-20T04:47:29;99913.63;;;2.68;98.70
57038;BME280;59942;49.304;8.256;2022-11-20T04:49:59;99827.56;;;2.12;98.41
57038;BME280;59942;49.304;8.256;2022-11-20T04:52:26;99739.59;;;1.72;98.24
57038;BME280;59942;49.304;8.256;2022-11-20T04:54:55;99837.72;;;2.18;99.10
57038;BME280;59942;49.304;8.256;2022-11-20T04:57:27;99782.94;;;1.79;98.81
57038;BME280;59942;49.304;8.256;2022-11-20T04:59:58;99812.31;;;2.06;100.00
57038;BME280;59942;49.304;8.256;2022-11-20T05:02:31;99771.34;;;1.59;100.00
57038;BME280;59942;49.304;8.256;2022-11-20T05:05:00;99810.50;;;2.14;98.27
57038;BME280;59942;49.304;8.256;2022-11-20T05:07:30;99772.25;;;2.05;97.18
57038;BME280;59942;49.304;8.256;2022-11-20T05:10:14;99824.34;;;2.51;98.50
57038;BME280;59942;49.304;8.256;2022-11-20T05:12:41;99825.22;;;2.48;96.57
57038;BME280;59942;49.304;8.256;2022-11-20T05:15:09;99836.97;;;2.58;96.65
57038;BME280;59942;49.304;8.256;2022-11-20T05:17:50;99814.59;;;2.23;98.45
57038;BME280;59942;49.304;8.256;2022-11-20T05:20:26;99751.94;;;1.99;96.69
57038;BME280;59942;49.304;8.256;2022-11-20T05:23:00;99781.56;;;2.09;97.10
57038;BME280;59942;49.304;8.256;2022-11-20T05:25:29;99795.63;;;2.35;96.25
57038;BME280;59942;49.304;8.256;2022-11-20T05:28:05;99730.22;;;1.71;99.06
57038;BME280;59942;49.304;8.256;2022-11-20T05:30:34;99810.06;;;2.39;97.00
57038;BME280;59942;49.304;8.256;2022-11-20T05:33:01;99833.28;;;2.26;99.10
57038;BME280;59942;49.304;8.256;2022-11-20T05:35:37;99875.97;;;2.73;98.29
57038;BME280;59942;49.304;8.256;2022-11-20T05:38:06;99829.81;;;2.31;99.85
57038;BME280;59942;49.304;8.256;2022-11-20T05:40:41;99893.50;;;2.93;97.85
57038;BME280;59942;49.304;8.256;2022-11-20T05:43:14;99900.84;;;3.11;99.13
57038;BME280;59942;49.304;8.256;2022-11-20T05:46:02;99899.00;;;3.20;96.71
57038;BME280;59942;49.304;8.256;2022-11-20T05:48:34;99891.28;;;3.21;96.83
57038;BME280;59942;49.304;8.256;2022-11-20T05:51:07;99729.34;;;2.21;95.11
57038;BME280;59942;49.304;8.256;2022-11-20T05:53:35;99805.06;;;2.78;97.35
57038;BME280;59942;49.304;8.256;2022-11-20T05:56:16;99803.38;;;2.75;98.30
57038;BME280;59942;49.304;8.256;2022-11-20T05:58:45;99778.84;;;2.65;98.29
57038;BME280;59942;49.304;8.256;2022-11-20T06:01:20;99744.28;;;2.42;98.85
57038;BME280;59942;49.304;8.256;2022-11-20T06:03:56;99739.19;;;2.42;97.75
57038;BME280;59942;49.304;8.256;2022-11-20T06:06:28;99879.84;;;3.36;96.29
57038;BME280;59942;49.304;8.256;2022-11-20T06:08:55;99891.91;;;3.33;97.81
57038;BME280;59942;49.304;8.256;2022-11-20T06:11:25;99740.91;;;2.42;96.69
57038;BME280;59942;49.304;8.256;2022-11-20T06:13:53;99771.25;;;2.60;95.98
57038;BME280;59942;49.304;8.256;2022-11-20T06:16:34;99728.84;;;2.49;97.21
57038;BME280;59942;49.304;8.256;2022-11-20T06:19:06;99868.16;;;3.24;95.89
57038;BME280;59942;49.304;8.256;2022-11-20T06:21:34;99874.75;;;3.35;95.38
57038;BME280;59942;49.304;8.256;2022-11-20T06:24:09;99797.09;;;2.92;94.29
57038;BME280;59942;49.304;8.256;2022-11-20T06:26:42;99732.19;;;2.52;95.84
57038;BME280;59942;49.304;8.256;2022-11-20T06:29:11;99736.53;;;2.49;94.03
57038;BME280;59942;49.304;8.256;2022-11-20T06:31:41;99834.94;;;3.20;94.05
57038;BME280;59942;49.304;8.256;2022-11-20T06:34:11;99759.91;;;2.74;96.56
57038;BME280;59942;49.304;8.256;2022-11-20T06:36:41;99792.75;;;2.95;95.56
57038;BME280;59942;49.304;8.256;2022-11-20T06:39:13;99812.22;;;3.03;94.33
57038;BME280;59942;49.304;8.256;2022-11-20T06:41:43;99742.88;;;2.71;95.33
57038;BME280;59942;49.304;8.256;2022-11-20T06:44:12;99731.19;;;2.59;93.97
57038;BME280;59942;49.304;8.256;2022-11-20T06:46:39;99792.75;;;2.95;95.16
57038;BME280;59942;49.304;8.256;2022-11-20T06:49:09;99731.88;;;2.68;95.70
57038;BME280;59942;49.304;8.256;2022-11-20T06:51:56;99827.47;;;3.09;95.95
57038;BME280;59942;49.304;8.256;2022-11-20T06:54:28;99752.38;;;2.66;99.20
57038;BME280;59942;49.304;8.256;2022-11-20T06:56:58;99784.38;;;2.87;99.74
57038;BME280;59942;49.304;8.256;2022-11-20T06:59:27;99807.94;;;3.03;100.00
57038;BME280;59942;49.304;8.256;2022-11-20T07:02:11;99822.66;;;2.95;100.00
57038;BME280;59942;49.304;8.256;2022-11-20T07:05:01;99764.31;;;2.66;100.00
57038;BME280;59942;49.304;8.256;2022-11-20T07:07:42;99821.66;;;3.02;100.00
57038;BME280;59942;49.304;8.256;2022-11-20T07:10:12;99862.84;;;3.32;100.00
57038;BME280;59942;49.304;8.256;2022-11-20T07:12:49;99764.84;;;2.82;100.00
57038;BME280;59942;49.304;8.256;2022-11-20T07:15:21;99797.19;;;3.26;100.00
57038;BME280;59942;49.304;8.256;2022-11-20T07:18:04;99811.31;;;3.46;100.00
57038;BME280;59942;49.304;8.256;2022-11-20T07:20:37;99749.47;;;3.24;100.00
57038;BME280;59942;49.304;8.256;2022-11-20T07:23:06;99754.59;;;3.60;100.00
57038;BME280;59942;49.304;8.256;2022-11-20T07:25:40;99810.75;;;4.07;100.00
57038;BME280;59942;49.304;8.256;2022-11-20T07:28:18;99779.63;;;3.86;100.00
57038;BME280;59942;49.304;8.256;2022-11-20T07:30:52;99826.94;;;4.42;100.00
57038;BME280;59942;49.304;8.256;2022-11-20T07:33:20;99825.16;;;4.45;100.00
57038;BME280;59942;49.304;8.256;2022-11-20T07:35:47;99814.41;;;4.31;100.00
57038;BME280;59942;49.304;8.256;2022-11-20T07:38:14;99871.53;;;5.03;100.00
57038;BME280;59942;49.304;8.256;2022-11-20T07:40:44;99817.25;;;4.53;100.00
57038;BME280;59942;49.304;8.256;2022-11-20T07:43:11;99770.41;;;4.45;100.00
57038;BME280;59942;49.304;8.256;2022-11-20T07:45:40;99794.50;;;4.70;100.00
57038;BME280;59942;49.304;8.256;2022-11-20T07:48:11;99741.50;;;4.38;100.00
57038;BME280;59942;49.304;8.256;2022-11-20T07:50:38;99839.63;;;5.11;100.00
57038;BME280;59942;49.304;8.256;2022-11-20T07:53:08;99758.78;;;4.63;100.00
57038;BME280;59942;49.304;8.256;2022-11-20T07:55:35;99857.50;;;5.15;100.00
57038;BME280;59942;49.304;8.256;2022-11-20T07:58:02;99850.94;;;5.05;100.00
57038;BME280;59942;49.304;8.256;2022-11-20T08:00:28;99840.66;;;5.05;100.00
57038;BME280;59942;49.304;8.256;2022-11-20T08:02:55;99864.31;;;5.16;100.00
57038;BME280;59942;49.304;8.256;2022-11-20T08:05:22;99869.50;;;5.15;100.00
57038;BME280;59942;49.304;8.256;2022-11-20T08:07:50;99876.78;;;5.30;100.00
57038;BME280;59942;49.304;8.256;2022-11-20T08:10:16;99882.53;;;5.38;100.00
57038;BME280;59942;49.304;8.256;2022-11-20T08:12:48;99904.84;;;5.68;100.00
57038;BME280;59942;49.304;8.256;2022-11-20T08:15:35;99912.44;;;5.71;100.00
57038;BME280;59942;49.304;8.256;2022-11-20T08:18:11;99880.00;;;5.67;100.00
57038;BME280;59942;49.304;8.256;2022-11-20T08:20:56;99897.31;;;5.60;100.00
57038;BME280;59942;49.304;8.256;2022-11-20T08:23:23;99891.81;;;5.72;100.00
57038;BME280;59942;49.304;8.256;2022-11-20T08:25:50;99880.09;;;5.64;100.00
57038;BME280;59942;49.304;8.256;2022-11-20T08:28:18;99882.47;;;5.70;100.00
57038;BME280;59942;49.304;8.256;2022-11-20T08:30:48;99914.38;;;5.93;100.00
57038;BME280;59942;49.304;8.256;2022-11-20T08:33:17;99910.06;;;5.93;100.00
57038;BME280;59942;49.304;8.256;2022-11-20T08:35:45;99868.63;;;5.74;100.00
57038;BME280;59942;49.304;8.256;2022-11-20T08:38:13;99937.84;;;6.12;100.00
57038;BME280;59942;49.304;8.256;2022-11-20T08:40:40;99911.25;;;6.11;100.00
57038;BME280;59942;49.304;8.256;2022-11-20T08:43:07;99874.09;;;5.91;100.00
57038;BME280;59942;49.304;8.256;2022-11-20T08:45:34;99936.41;;;6.30;100.00
57038;BME280;59942;49.304;8.256;2022-11-20T08:48:02;99887.59;;;6.00;100.00
57038;BME280;59942;49.304;8.256;2022-11-20T08:50:30;99940.88;;;6.24;100.00
57038;BME280;59942;49.304;8.256;2022-11-20T08:53:06;99892.09;;;5.91;100.00
57038;BME280;59942;49.304;8.256;2022-11-20T08:55:33;99898.97;;;6.19;100.00
57038;BME280;59942;49.304;8.256;2022-11-20T08:58:06;99916.72;;;6.29;100.00
57038;BME280;59942;49.304;8.256;2022-11-20T09:00:33;99912.13;;;6.37;100.00
57038;BME280;59942;49.304;8.256;2022-11-20T09:03:01;99908.78;;;6.35;100.00
57038;BME280;59942;49.304;8.256;2022-11-20T09:05:29;99880.66;;;6.29;100.00
57038;BME280;59942;49.304;8.256;2022-11-20T09:07:57;99905.06;;;6.43;100.00
57038;BME280;59942;49.304;8.256;2022-11-20T09:10:24;99921.66;;;6.62;100.00
57038;BME280;59942;49.304;8.256;2022-11-20T09:12:52;99923.13;;;6.69;100.00
57038;BME280;59942;49.304;8.256;2022-11-20T09:15:19;99885.38;;;6.68;100.00
57038;BME280;59942;49.304;8.256;2022-11-20T09:18:01;99877.81;;;6.63;98.88
57038;BME280;59942;49.304;8.256;2022-11-20T09:20:30;99919.78;;;6.90;97.93
57038;BME280;59942;49.304;8.256;2022-11-20T09:22:57;99944.69;;;7.17;96.95
57038;BME280;59942;49.304;8.256;2022-11-20T09:25:24;99909.28;;;6.97;95.69
57038;BME280;59942;49.304;8.256;2022-11-20T09:27:56;99881.53;;;6.80;96.45
57038;BME280;59942;49.304;8.256;2022-11-20T09:30:26;99862.84;;;6.73;96.77
57038;BME280;59942;49.304;8.256;2022-11-20T09:32:54;99876.31;;;6.81;96.17
57038;BME280;59942;49.304;8.256;2022-11-20T09:35:22;99895.00;;;6.88;96.08
57038;BME280;59942;49.304;8.256;2022-11-20T09:37:50;99959.88;;;7.24;96.88
57038;BME280;59942;49.304;8.256;2022-11-20T09:40:23;99939.94;;;7.04;97.68
57038;BME280;59942;49.304;8.256;2022-11-20T09:46:40;99966.91;;;7.19;97.60
57038;BME280;59942;49.304;8.256;2022-11-20T09:56:23;99970.97;;;7.26;95.87
57038;BME280;59942;49.304;8.256;2022-11-20T09:58:54;99865.13;;;6.57;95.52
57038;BME280;59942;49.304;8.256;2022-11-20T10:01:26;99881.25;;;6.87;94.70
57038;BME280;59942;49.304;8.256;2022-11-20T10:04:10;99969.53;;;7.43;93.75
57038;BME280;59942;49.304;8.256;2022-11-20T10:07:04;99962.06;;;7.35;94.63
57038;BME280;59942;49.304;8.256;2022-11-20T10:22:40;99961.56;;;7.25;96.01
57038;BME280;59942;49.304;8.256;2022-11-20T10:32:12;99934.84;;;7.26;95.94
57038;BME280;59942;49.304;8.256;2022-11-20T10:34:59;99928.56;;;7.34;97.63
57038;BME280;59942;49.304;8.256;2022-11-20T10:37:48;99946.47;;;7.62;94.83
57038;BME280;59942;49.304;8.256;2022-11-20T10:40:28;99948.91;;;7.89;90.79
57038;BME280;59942;49.304;8.256;2022-11-20T10:43:02;99954.84;;;7.91;92.75
57038;BME280;59942;49.304;8.256;2022-11-20T10:46:03;99950.31;;;7.97;92.40
57038;BME280;59942;49.304;8.256;2022-11-20T10:48:32;99885.94;;;7.71;88.25
57038;BME280;59942;49.304;8.256;2022-11-20T10:51:10;99910.00;;;7.71;87.25
57038;BME280;59942;49.304;8.256;2022-11-20T10:54:12;99881.72;;;7.68;91.69
57038;BME280;59942;49.304;8.256;2022-11-20T11:00:07;99944.25;;;8.21;85.23
57038;BME280;59942;49.304;8.256;2022-11-20T11:12:09;99866.16;;;8.77;81.83
57038;BME280;59942;49.304;8.256;2022-11-20T11:18:00;99909.91;;;9.79;83.53
57038;BME280;59942;49.304;8.256;2022-11-20T11:20:27;99830.25;;;9.47;78.51
57038;BME280;59942;49.304;8.256;2022-11-20T11:22:56;99848.91;;;9.90;75.59
57038;BME280;59942;49.304;8.256;2022-11-20T11:25:27;99900.63;;;10.29;76.41
57038;BME280;59942;49.304;8.256;2022-11-20T11:27:57;99845.41;;;9.91;77.56
57038;BME280;59942;49.304;8.256;2022-11-20T11:30:27;99842.06;;;9.89;72.92
57038;BME280;59942;49.304;8.256;2022-11-20T11:33:05;99897.59;;;10.38;74.96
57038;BME280;59942;49.304;8.256;2022-11-20T11:35:33;99866.00;;;10.12;77.06
57038;BME280;59942;49.304;8.256;2022-11-20T11:38:21;99897.09;;;10.49;82.95
57038;BME280;59942;49.304;8.256;2022-11-20T11:40:54;99850.09;;;9.66;73.49
57038;BME280;59942;49.304;8.256;2022-11-20T11:43:26;99872.63;;;9.64;73.68
57038;BME280;59942;49.304;8.256;2022-11-20T11:46:30;99885.91;;;9.56;80.08
57038;BME280;59942;49.304;8.256;2022-11-20T11:51:54;99862.00;;;9.51;79.54
57038;BME280;59942;49.304;8.256;2022-11-20T11:57:00;99834.31;;;9.15;75.51
57038;BME280;59942;49.304;8.256;2022-11-20T11:59:46;99890.69;;;9.65;78.78
57038;BME280;59942;49.304;8.256;2022-11-20T12:07:46;99850.25;;;9.44;75.18
57038;BME280;59942;49.304;8.256;2022-11-20T12:10:26;99823.28;;;9.30;72.91
57038;BME280;59942;49.304;8.256;2022-11-20T12:13:15;99832.25;;;9.23;78.15
57038;BME280;59942;49.304;8.256;2022-11-20T12:15:46;99864.38;;;9.36;79.03
57038;BME280;59942;49.304;8.256;2022-11-20T12:28:22;99873.84;;;9.37;79.34
57038;BME280;59942;49.304;8.256;2022-11-20T12:31:24;99868.22;;;9.09;75.95
57038;BME280;59942;49.304;8.256;2022-11-20T12:39:55;99868.22;;;9.09;76.53
57038;BME280;59942;49.304;8.256;2022-11-20T12:42:48;99867.19;;;9.32;78.70
57038;BME280;59942;49.304;8.256;2022-11-20T12:55:02;99855.13;;;9.50;74.91
57038;BME280;59942;49.304;8.256;2022-11-20T12:57:58;99854.34;;;9.67;72.44
57038;BME280;59942;49.304;8.256;2022-11-20T13:00:47;99765.47;;;8.74;68.98
57038;BME280;59942;49.304;8.256;2022-11-20T13:09:13;99760.53;;;8.49;73.54
57038;BME280;59942;49.304;8.256;2022-11-20T13:19:59;99761.59;;;8.04;67.49
57038;BME280;59942;49.304;8.256;2022-11-20T13:22:46;99846.47;;;8.54;66.38
57038;BME280;59942;49.304;8.256;2022-11-20T13:25:32;99779.31;;;8.11;70.61
57038;BME280;59942;49.304;8.256;2022-11-20T13:30:53;99743.94;;;7.93;68.22
57038;BME280;59942;49.304;8.256;2022-11-20T13:33:30;99823.41;;;8.49;70.72
57038;BME280;59942;49.304;8.256;2022-11-20T13:36:19;99678.75;;;7.69;70.40
57038;BME280;59942;49.304;8.256;2022-11-20T13:38:53;99786.16;;;8.33;67.46
57038;BME280;59942;49.304;8.256;2022-11-20T13:41:35;99813.28;;;8.43;72.37
57038;BME280;59942;49.304;8.256;2022-11-20T13:50:18;99798.63;;;8.23;68.12
57038;BME280;59942;49.304;8.256;2022-11-20T13:55:36;99798.97;;;8.15;69.96
57038;BME280;59942;49.304;8.256;2022-11-20T14:00:55;99817.63;;;8.22;73.67
57038;BME280;59942;49.304;8.256;2022-11-20T14:03:25;99763.84;;;7.91;68.65
57038;BME280;59942;49.304;8.256;2022-11-20T14:09:31;99754.81;;;7.80;71.44
57038;BME280;59942;49.304;8.256;2022-11-20T14:11:59;99744.84;;;7.71;67.00
57038;BME280;59942;49.304;8.256;2022-11-20T14:17:49;99787.31;;;7.85;68.07
57038;BME280;59942;49.304;8.256;2022-11-20T14:23:26;99793.91;;;7.92;72.30
57038;BME280;59942;49.304;8.256;2022-11-20T14:25:56;99789.84;;;7.86;67.70
57038;BME280;59942;49.304;8.256;2022-11-20T14:31:28;99729.53;;;7.46;68.46
57038;BME280;59942;49.304;8.256;2022-11-20T14:33:55;99731.97;;;7.49;69.20
57038;BME280;59942;49.304;8.256;2022-11-20T14:36:25;99784.88;;;7.81;66.99
57038;BME280;59942;49.304;8.256;2022-11-20T14:38:52;99741.47;;;7.48;68.84
57038;BME280;59942;49.304;8.256;2022-11-20T14:41:24;99742.34;;;7.47;68.06
57038;BME280;59942;49.304;8.256;2022-11-20T14:44:00;99735.50;;;7.46;71.34
57038;BME280;59942;49.304;8.256;2022-11-20T14:46:30;99723.31;;;7.29;69.20
57038;BME280;59942;49.304;8.256;2022-11-20T14:49:01;99770.53;;;7.74;72.98
57038;BME280;59942;49.304;8.256;2022-11-20T14:54:43;99725.25;;;7.45;69.22
57038;BME280;59942;49.304;8.256;2022-11-20T14:57:30;99736.38;;;7.47;70.38
57038;BME280;59942;49.304;8.256;2022-11-20T15:02:32;99701.94;;;7.26;72.20
57038;BME280;59942;49.304;8.256;2022-11-20T15:05:01;99753.16;;;7.57;70.73
57038;BME280;59942;49.304;8.256;2022-11-20T15:07:32;99700.44;;;7.20;69.87
57038;BME280;59942;49.304;8.256;2022-11-20T15:10:05;99748.34;;;7.48;70.34
57038;BME280;59942;49.304;8.256;2022-11-20T15:12:35;99697.56;;;7.06;70.48
57038;BME280;59942;49.304;8.256;2022-11-20T15:15:05;99693.31;;;7.05;70.34
57038;BME280;59942;49.304;8.256;2022-11-20T15:17:37;99656.53;;;6.79;69.98
57038;BME280;59942;49.304;8.256;2022-11-20T15:20:14;99603.66;;;6.47;70.59
57038;BME280;59942;49.304;8.256;2022-11-20T15:22:42;99632.91;;;6.68;70.54
57038;BME280;59942;49.304;8.256;2022-11-20T15:25:15;99605.22;;;6.51;71.58
57038;BME280;59942;49.304;8.256;2022-11-20T15:27:46;99649.25;;;6.67;72.27
57038;BME280;59942;49.304;8.256;2022-11-20T15:30:22;99632.59;;;6.53;74.52
57038;BME280;59942;49.304;8.256;2022-11-20T15:32:51;99665.53;;;6.67;73.39
57038;BME280;59942;49.304;8.256;2022-11-20T15:35:18;99727.91;;;6.99;73.62
57038;BME280;59942;49.304;8.256;2022-11-20T15:37:45;99711.16;;;6.87;74.02
57038;BME280;59942;49.304;8.256;2022-11-20T15:40:12;99686.13;;;6.69;75.15
57038;BME280;59942;49.304;8.256;2022-11-20T15:42:39;99721.97;;;6.97;74.21
57038;BME280;59942;49.304;8.256;2022-11-20T15:45:31;99711.16;;;6.87;74.13
57038;BME280;59942;49.304;8.256;2022-11-20T15:48:00;99641.03;;;6.57;74.96
57038;BME280;59942;49.304;8.256;2022-11-20T15:50:36;99691.28;;;6.91;75.20
57038;BME280;59942;49.304;8.256;2022-11-20T15:53:03;99698.72;;;6.99;75.35
57038;BME280;59942;49.304;8.256;2022-11-20T15:55:30;99706.44;;;6.99;75.95
57038;BME280;59942;49.304;8.256;2022-11-20T15:57:58;99650.50;;;6.56;76.58